Pagina principale
METAR-TAF:

METAR-TAF

Aeroporti :

Aerodromo Hinterstoisser-Zeltweg

Zeltweg, Austria

latitudine: 47-12N, longitudine: 014-45E, altezza: 677 m

Osservazione

Il bollettino è stato emesso 38 minuti fa, alle 23:50 UTC
Vento 3 kt da nord/nord-est
Temperature 8°C
Umidità 93%
Pressione 1006 hPa

METAR: LOXZ 152350Z 02003KT 20KM FEW045TSC BKN060SC 08/07 Q1006

Ora: 02:28 (00:28 UTC)

Previsione

Il bollettino è stato emesso 10 ore e 13 minuti fa, alle 14:15 UTC
Previsione valida dal 15 alle 15 UTC al 15 alle 24 UTC
Vento 3 kt da direzioni variabili
Visibilità 10 km o più
Nubi sparse ad un'altezza di 3000 ft
Nubi sparse ad un'altezza di 6000 ft
Temporaneamente
dal 15 alle 15 UTC al 15 alle 19 UTC
Poco nuvoloso ad un'altezza di 1500 ft
Nubi sparse ad un'altezza di 5000 ft, Cumulo congesto.
Nuvoloso ad un'altezza di 6000 ft
rovesci di pioggia

TAF: LOXZ 151415Z 1515/1524 VRB03KT 9999 SCT030 SCT060 TEMPO 1515/1519 SHRA FEW015 SCT050TCU BKN060

Osservazioni e previsioni meteorologiche di più di 4000 aeroporti (messaggi METAR e TAF).

Le stazioni disponibili sono rappresentate dai dischi gialli e rossi sulla carta.

Puntare il mouse per vedere il nome della stazione.

Clicca sopra per visualizzare le osservazioni e previsioni meteorologiche.

Per cambiare la mappa : fare clic sui pulsanti verdi con una croce nera per ingrandire, il pulsante verde con un trattino per diminuire, o sulla freccia verde per le mappe adiacenti.


METAR-TAF: